Harrison, Tennessee
Current Conditions -  °F | °C
As of 3:53 PM on Sunday 21 Dec 2014 (Local Time) from KCHA Reporting Station
Overcast Overcast  
Wind Chill: 46°   Ceiling: 3700
Heat Index: 48°   Visibility: 10mi
Dew Point: 37°   Wind: 5mph
Humidity: 66%   Direction: 340°NNW
Pressure: 30.12"   Gusts: NA
Location:  35.11°N, 85.14°W
Report Text: KCHA 212053Z 34004KT 10SM SCT027 OVC037 09/03 A3012 RMK AO2 SLP201 T00890028 56023 $
Loading
Personal Weather Stations






























Interactive Weather Map New forecast layout! Learn more

10-Day Weather Forecast

Advertisements
Track Severe Weather on mobile